sensor_id;sensor_type;location;lat;lon;timestamp;P1;durP1;ratioP1;P2;durP2;ratioP2
8927;SDS011;4499;48.304;11.902;2023-04-25T00:02:26;5.20;;;2.83;;
8927;SDS011;4499;48.304;11.902;2023-04-25T00:04:56;4.37;;;3.10;;
8927;SDS011;4499;48.304;11.902;2023-04-25T00:07:25;3.37;;;2.93;;
8927;SDS011;4499;48.304;11.902;2023-04-25T00:09:53;4.23;;;3.10;;
8927;SDS011;4499;48.304;11.902;2023-04-25T00:12:21;4.67;;;3.20;;
8927;SDS011;4499;48.304;11.902;2023-04-25T00:14:50;3.30;;;2.83;;
8927;SDS011;4499;48.304;11.902;2023-04-25T00:17:19;4.40;;;2.90;;
8927;SDS011;4499;48.304;11.902;2023-04-25T00:19:48;5.50;;;3.23;;
8927;SDS011;4499;48.304;11.902;2023-04-25T00:22:17;4.03;;;2.80;;
8927;SDS011;4499;48.304;11.902;2023-04-25T00:24:45;3.27;;;2.93;;
8927;SDS011;4499;48.304;11.902;2023-04-25T00:27:14;4.23;;;3.10;;
8927;SDS011;4499;48.304;11.902;2023-04-25T00:29:42;4.10;;;3.13;;
8927;SDS011;4499;48.304;11.902;2023-04-25T00:32:10;3.97;;;2.70;;
8927;SDS011;4499;48.304;11.902;2023-04-25T00:34:38;3.90;;;3.10;;
8927;SDS011;4499;48.304;11.902;2023-04-25T00:37:06;5.90;;;2.77;;
8927;SDS011;4499;48.304;11.902;2023-04-25T00:39:35;4.83;;;3.10;;
8927;SDS011;4499;48.304;11.902;2023-04-25T00:42:03;4.43;;;3.33;;
8927;SDS011;4499;48.304;11.902;2023-04-25T00:44:32;5.27;;;3.20;;
8927;SDS011;4499;48.304;11.902;2023-04-25T00:47:01;3.20;;;2.90;;
8927;SDS011;4499;48.304;11.902;2023-04-25T00:49:30;3.90;;;3.10;;
8927;SDS011;4499;48.304;11.902;2023-04-25T00:51:58;3.60;;;2.80;;
8927;SDS011;4499;48.304;11.902;2023-04-25T00:54:26;7.47;;;3.10;;
8927;SDS011;4499;48.304;11.902;2023-04-25T00:56:56;3.73;;;3.10;;
8927;SDS011;4499;48.304;11.902;2023-04-25T00:59:24;3.90;;;3.20;;
8927;SDS011;4499;48.304;11.902;2023-04-25T01:01:53;6.17;;;3.10;;
8927;SDS011;4499;48.304;11.902;2023-04-25T01:04:21;4.33;;;3.00;;
8927;SDS011;4499;48.304;11.902;2023-04-25T01:06:50;5.25;;;3.20;;
8927;SDS011;4499;48.304;11.902;2023-04-25T01:09:18;4.27;;;3.07;;
8927;SDS011;4499;48.304;11.902;2023-04-25T01:11:47;4.10;;;2.90;;
8927;SDS011;4499;48.304;11.902;2023-04-25T01:14:17;4.97;;;3.07;;
8927;SDS011;4499;48.304;11.902;2023-04-25T01:16:45;5.93;;;3.43;;
8927;SDS011;4499;48.304;11.902;2023-04-25T01:19:15;5.07;;;3.00;;
8927;SDS011;4499;48.304;11.902;2023-04-25T01:21:46;3.93;;;3.10;;
8927;SDS011;4499;48.304;11.902;2023-04-25T01:24:14;4.90;;;3.00;;
8927;SDS011;4499;48.304;11.902;2023-04-25T01:26:43;5.53;;;3.40;;
8927;SDS011;4499;48.304;11.902;2023-04-25T01:29:15;4.30;;;2.93;;
8927;SDS011;4499;48.304;11.902;2023-04-25T01:31:44;3.27;;;2.80;;
8927;SDS011;4499;48.304;11.902;2023-04-25T01:34:13;4.00;;;3.00;;
8927;SDS011;4499;48.304;11.902;2023-04-25T01:36:42;4.40;;;3.00;;
8927;SDS011;4499;48.304;11.902;2023-04-25T01:39:11;4.90;;;3.13;;
8927;SDS011;4499;48.304;11.902;2023-04-25T01:41:40;5.70;;;2.80;;
8927;SDS011;4499;48.304;11.902;2023-04-25T01:44:08;3.53;;;3.00;;
8927;SDS011;4499;48.304;11.902;2023-04-25T01:46:36;5.93;;;3.00;;
8927;SDS011;4499;48.304;11.902;2023-04-25T01:49:05;4.83;;;3.30;;
8927;SDS011;4499;48.304;11.902;2023-04-25T01:51:33;4.97;;;3.13;;
8927;SDS011;4499;48.304;11.902;2023-04-25T01:54:01;4.63;;;3.03;;
8927;SDS011;4499;48.304;11.902;2023-04-25T01:56:31;4.40;;;2.80;;
8927;SDS011;4499;48.304;11.902;2023-04-25T01:58:59;4.73;;;3.03;;
8927;SDS011;4499;48.304;11.902;2023-04-25T02:01:27;4.73;;;3.20;;
8927;SDS011;4499;48.304;11.902;2023-04-25T02:03:55;5.57;;;3.37;;
8927;SDS011;4499;48.304;11.902;2023-04-25T02:06:24;5.37;;;3.20;;
8927;SDS011;4499;48.304;11.902;2023-04-25T02:08:52;4.37;;;3.23;;
8927;SDS011;4499;48.304;11.902;2023-04-25T02:11:20;6.10;;;3.50;;
8927;SDS011;4499;48.304;11.902;2023-04-25T02:13:49;4.30;;;3.07;;
8927;SDS011;4499;48.304;11.902;2023-04-25T02:16:18;4.30;;;3.50;;
8927;SDS011;4499;48.304;11.902;2023-04-25T02:18:47;3.80;;;3.23;;
8927;SDS011;4499;48.304;11.902;2023-04-25T02:21:15;5.57;;;3.40;;
8927;SDS011;4499;48.304;11.902;2023-04-25T02:23:43;4.50;;;3.13;;
8927;SDS011;4499;48.304;11.902;2023-04-25T02:26:15;4.97;;;3.50;;
8927;SDS011;4499;48.304;11.902;2023-04-25T02:28:43;5.57;;;3.40;;
8927;SDS011;4499;48.304;11.902;2023-04-25T02:31:12;5.07;;;3.47;;
8927;SDS011;4499;48.304;11.902;2023-04-25T02:33:41;5.13;;;3.43;;
8927;SDS011;4499;48.304;11.902;2023-04-25T02:36:09;4.57;;;3.40;;
8927;SDS011;4499;48.304;11.902;2023-04-25T02:38:37;3.43;;;3.13;;
8927;SDS011;4499;48.304;11.902;2023-04-25T02:41:06;4.97;;;3.47;;
8927;SDS011;4499;48.304;11.902;2023-04-25T02:43:34;3.97;;;3.27;;
8927;SDS011;4499;48.304;11.902;2023-04-25T02:46:02;4.20;;;3.17;;
8927;SDS011;4499;48.304;11.902;2023-04-25T02:48:32;4.83;;;3.50;;
8927;SDS011;4499;48.304;11.902;2023-04-25T02:51:00;5.90;;;3.60;;
8927;SDS011;4499;48.304;11.902;2023-04-25T02:53:28;4.57;;;3.73;;
8927;SDS011;4499;48.304;11.902;2023-04-25T02:55:55;5.57;;;3.40;;
8927;SDS011;4499;48.304;11.902;2023-04-25T02:58:25;7.23;;;3.83;;
8927;SDS011;4499;48.304;11.902;2023-04-25T03:00:53;5.53;;;3.73;;
8927;SDS011;4499;48.304;11.902;2023-04-25T03:03:21;3.97;;;3.40;;
8927;SDS011;4499;48.304;11.902;2023-04-25T03:05:51;4.50;;;3.37;;
8927;SDS011;4499;48.304;11.902;2023-04-25T03:08:19;4.40;;;3.70;;
8927;SDS011;4499;48.304;11.902;2023-04-25T03:10:47;4.87;;;3.43;;
8927;SDS011;4499;48.304;11.902;2023-04-25T03:13:16;4.50;;;3.30;;
8927;SDS011;4499;48.304;11.902;2023-04-25T03:15:44;6.53;;;3.60;;
8927;SDS011;4499;48.304;11.902;2023-04-25T03:18:12;4.63;;;3.50;;
8927;SDS011;4499;48.304;11.902;2023-04-25T03:20:40;4.03;;;3.30;;
8927;SDS011;4499;48.304;11.902;2023-04-25T03:23:10;4.80;;;3.30;;
8927;SDS011;4499;48.304;11.902;2023-04-25T03:25:38;3.63;;;3.20;;
8927;SDS011;4499;48.304;11.902;2023-04-25T03:28:06;3.60;;;3.17;;
8927;SDS011;4499;48.304;11.902;2023-04-25T03:30:34;4.20;;;3.00;;
8927;SDS011;4499;48.304;11.902;2023-04-25T03:33:02;5.00;;;3.40;;
8927;SDS011;4499;48.304;11.902;2023-04-25T03:35:30;3.40;;;2.90;;
8927;SDS011;4499;48.304;11.902;2023-04-25T03:37:58;4.00;;;2.93;;
8927;SDS011;4499;48.304;11.902;2023-04-25T03:40:28;5.03;;;3.00;;
8927;SDS011;4499;48.304;11.902;2023-04-25T03:42:56;5.10;;;2.73;;
8927;SDS011;4499;48.304;11.902;2023-04-25T03:45:24;5.37;;;2.80;;
8927;SDS011;4499;48.304;11.902;2023-04-25T03:47:52;5.17;;;3.20;;
8927;SDS011;4499;48.304;11.902;2023-04-25T03:50:20;6.43;;;2.73;;
8927;SDS011;4499;48.304;11.902;2023-04-25T03:52:48;4.03;;;2.97;;
8927;SDS011;4499;48.304;11.902;2023-04-25T03:55:17;4.53;;;3.20;;
8927;SDS011;4499;48.304;11.902;2023-04-25T03:57:47;4.83;;;3.00;;
8927;SDS011;4499;48.304;11.902;2023-04-25T04:00:15;4.20;;;2.90;;
8927;SDS011;4499;48.304;11.902;2023-04-25T04:02:43;3.90;;;3.10;;
8927;SDS011;4499;48.304;11.902;2023-04-25T04:05:11;5.27;;;2.90;;
8927;SDS011;4499;48.304;11.902;2023-04-25T04:07:39;3.67;;;2.90;;
8927;SDS011;4499;48.304;11.902;2023-04-25T04:10:09;5.43;;;3.20;;
8927;SDS011;4499;48.304;11.902;2023-04-25T04:12:38;4.93;;;3.57;;
8927;SDS011;4499;48.304;11.902;2023-04-25T04:15:08;5.23;;;3.37;;
8927;SDS011;4499;48.304;11.902;2023-04-25T04:17:37;5.83;;;3.73;;
8927;SDS011;4499;48.304;11.902;2023-04-25T04:20:05;5.93;;;3.53;;
8927;SDS011;4499;48.304;11.902;2023-04-25T04:22:34;7.80;;;3.60;;
8927;SDS011;4499;48.304;11.902;2023-04-25T04:25:03;4.30;;;3.47;;
8927;SDS011;4499;48.304;11.902;2023-04-25T04:27:32;7.37;;;3.70;;
8927;SDS011;4499;48.304;11.902;2023-04-25T04:30:01;5.40;;;3.30;;
8927;SDS011;4499;48.304;11.902;2023-04-25T04:32:30;4.87;;;3.07;;
8927;SDS011;4499;48.304;11.902;2023-04-25T04:35:00;3.70;;;3.10;;
8927;SDS011;4499;48.304;11.902;2023-04-25T04:37:29;5.70;;;3.30;;
8927;SDS011;4499;48.304;11.902;2023-04-25T04:39:58;3.73;;;3.00;;
8927;SDS011;4499;48.304;11.902;2023-04-25T04:42:31;5.43;;;3.17;;
8927;SDS011;4499;48.304;11.902;2023-04-25T04:44:59;5.07;;;3.07;;
8927;SDS011;4499;48.304;11.902;2023-04-25T04:47:27;4.77;;;3.00;;
8927;SDS011;4499;48.304;11.902;2023-04-25T04:50:00;3.63;;;2.70;;
8927;SDS011;4499;48.304;11.902;2023-04-25T04:52:28;6.17;;;3.13;;
8927;SDS011;4499;48.304;11.902;2023-04-25T04:54:56;4.43;;;2.90;;
8927;SDS011;4499;48.304;11.902;2023-04-25T04:57:24;5.87;;;3.10;;
8927;SDS011;4499;48.304;11.902;2023-04-25T04:59:52;8.07;;;2.80;;
8927;SDS011;4499;48.304;11.902;2023-04-25T05:02:20;5.70;;;3.33;;
8927;SDS011;4499;48.304;11.902;2023-04-25T05:04:49;7.87;;;3.20;;
8927;SDS011;4499;48.304;11.902;2023-04-25T05:07:19;4.33;;;2.90;;
8927;SDS011;4499;48.304;11.902;2023-04-25T05:09:47;5.07;;;2.80;;
8927;SDS011;4499;48.304;11.902;2023-04-25T05:12:15;4.60;;;2.70;;
8927;SDS011;4499;48.304;11.902;2023-04-25T05:14:43;4.73;;;2.73;;
8927;SDS011;4499;48.304;11.902;2023-04-25T05:17:11;4.97;;;3.00;;
8927;SDS011;4499;48.304;11.902;2023-04-25T05:19:39;4.40;;;2.53;;
8927;SDS011;4499;48.304;11.902;2023-04-25T05:22:07;5.33;;;2.60;;
8927;SDS011;4499;48.304;11.902;2023-04-25T05:24:37;5.87;;;2.50;;
8927;SDS011;4499;48.304;11.902;2023-04-25T05:27:05;3.30;;;2.20;;
8927;SDS011;4499;48.304;11.902;2023-04-25T05:29:33;3.43;;;2.50;;
8927;SDS011;4499;48.304;11.902;2023-04-25T05:32:01;3.63;;;2.30;;
8927;SDS011;4499;48.304;11.902;2023-04-25T05:34:30;3.23;;;2.23;;
8927;SDS011;4499;48.304;11.902;2023-04-25T05:36:58;3.07;;;2.17;;
8927;SDS011;4499;48.304;11.902;2023-04-25T05:39:26;3.23;;;2.07;;
8927;SDS011;4499;48.304;11.902;2023-04-25T05:41:55;5.03;;;2.57;;
8927;SDS011;4499;48.304;11.902;2023-04-25T05:44:23;4.20;;;2.40;;
8927;SDS011;4499;48.304;11.902;2023-04-25T05:46:52;3.20;;;2.20;;
8927;SDS011;4499;48.304;11.902;2023-04-25T05:49:21;2.87;;;2.17;;
8927;SDS011;4499;48.304;11.902;2023-04-25T05:51:49;4.70;;;2.10;;
8927;SDS011;4499;48.304;11.902;2023-04-25T05:54:17;4.70;;;2.33;;
8927;SDS011;4499;48.304;11.902;2023-04-25T05:56:45;5.57;;;2.30;;
8927;SDS011;4499;48.304;11.902;2023-04-25T05:59:15;2.90;;;2.10;;
8927;SDS011;4499;48.304;11.902;2023-04-25T06:01:43;3.67;;;2.13;;
8927;SDS011;4499;48.304;11.902;2023-04-25T06:04:11;4.60;;;2.40;;
8927;SDS011;4499;48.304;11.902;2023-04-25T06:06:40;3.60;;;2.30;;
8927;SDS011;4499;48.304;11.902;2023-04-25T06:09:08;6.03;;;2.37;;
8927;SDS011;4499;48.304;11.902;2023-04-25T06:11:39;3.77;;;2.47;;
8927;SDS011;4499;48.304;11.902;2023-04-25T06:14:07;5.03;;;2.20;;
8927;SDS011;4499;48.304;11.902;2023-04-25T06:16:36;5.43;;;2.50;;
8927;SDS011;4499;48.304;11.902;2023-04-25T06:19:04;4.57;;;2.50;;
8927;SDS011;4499;48.304;11.902;2023-04-25T06:21:32;2.97;;;2.10;;
8927;SDS011;4499;48.304;11.902;2023-04-25T06:24:00;2.87;;;2.20;;
8927;SDS011;4499;48.304;11.902;2023-04-25T06:26:28;3.93;;;2.20;;
8927;SDS011;4499;48.304;11.902;2023-04-25T06:28:56;3.07;;;2.40;;
8927;SDS011;4499;48.304;11.902;2023-04-25T06:31:24;5.10;;;2.83;;
8927;SDS011;4499;48.304;11.902;2023-04-25T06:33:54;5.97;;;2.93;;
8927;SDS011;4499;48.304;11.902;2023-04-25T06:36:22;5.10;;;2.73;;
8927;SDS011;4499;48.304;11.902;2023-04-25T06:38:51;5.20;;;2.80;;
8927;SDS011;4499;48.304;11.902;2023-04-25T06:41:19;5.73;;;2.93;;
8927;SDS011;4499;48.304;11.902;2023-04-25T06:43:47;5.70;;;2.83;;
8927;SDS011;4499;48.304;11.902;2023-04-25T06:46:15;3.87;;;2.57;;
8927;SDS011;4499;48.304;11.902;2023-04-25T06:48:44;7.53;;;2.80;;
8927;SDS011;4499;48.304;11.902;2023-04-25T06:51:13;4.77;;;2.80;;
8927;SDS011;4499;48.304;11.902;2023-04-25T06:53:41;5.30;;;2.63;;
8927;SDS011;4499;48.304;11.902;2023-04-25T06:56:09;4.80;;;2.80;;
8927;SDS011;4499;48.304;11.902;2023-04-25T06:58:38;6.60;;;3.10;;
8927;SDS011;4499;48.304;11.902;2023-04-25T07:01:06;4.77;;;3.10;;
8927;SDS011;4499;48.304;11.902;2023-04-25T07:03:35;4.70;;;2.80;;
8927;SDS011;4499;48.304;11.902;2023-04-25T07:06:04;4.73;;;2.90;;
8927;SDS011;4499;48.304;11.902;2023-04-25T07:08:34;6.30;;;2.70;;
8927;SDS011;4499;48.304;11.902;2023-04-25T07:11:02;5.40;;;3.20;;
8927;SDS011;4499;48.304;11.902;2023-04-25T07:13:30;5.27;;;3.00;;
8927;SDS011;4499;48.304;11.902;2023-04-25T07:15:58;5.47;;;2.90;;
8927;SDS011;4499;48.304;11.902;2023-04-25T07:18:27;5.27;;;3.10;;
8927;SDS011;4499;48.304;11.902;2023-04-25T07:20:55;6.60;;;3.43;;
8927;SDS011;4499;48.304;11.902;2023-04-25T07:23:23;8.43;;;3.40;;
8927;SDS011;4499;48.304;11.902;2023-04-25T07:25:52;5.50;;;3.27;;
8927;SDS011;4499;48.304;11.902;2023-04-25T07:28:23;7.40;;;3.70;;
8927;SDS011;4499;48.304;11.902;2023-04-25T07:30:51;7.40;;;3.60;;
8927;SDS011;4499;48.304;11.902;2023-04-25T07:33:19;4.37;;;3.30;;
8927;SDS011;4499;48.304;11.902;2023-04-25T07:35:47;5.80;;;3.23;;
8927;SDS011;4499;48.304;11.902;2023-04-25T07:38:16;7.00;;;3.37;;
8927;SDS011;4499;48.304;11.902;2023-04-25T07:40:44;8.67;;;3.60;;
8927;SDS011;4499;48.304;11.902;2023-04-25T07:43:14;5.07;;;3.67;;
8927;SDS011;4499;48.304;11.902;2023-04-25T07:45:43;6.53;;;3.37;;
8927;SDS011;4499;48.304;11.902;2023-04-25T07:48:13;4.27;;;3.20;;
8927;SDS011;4499;48.304;11.902;2023-04-25T07:50:44;3.83;;;3.17;;
8927;SDS011;4499;48.304;11.902;2023-04-25T07:53:12;6.23;;;3.57;;
8927;SDS011;4499;48.304;11.902;2023-04-25T07:55:40;4.43;;;3.50;;
8927;SDS011;4499;48.304;11.902;2023-04-25T07:58:09;5.73;;;3.10;;
8927;SDS011;4499;48.304;11.902;2023-04-25T08:00:40;5.10;;;3.23;;
8927;SDS011;4499;48.304;11.902;2023-04-25T08:03:09;8.17;;;3.37;;
8927;SDS011;4499;48.304;11.902;2023-04-25T08:05:38;6.57;;;3.40;;
8927;SDS011;4499;48.304;11.902;2023-04-25T08:08:06;6.27;;;3.27;;
8927;SDS011;4499;48.304;11.902;2023-04-25T08:10:34;5.77;;;3.20;;
8927;SDS011;4499;48.304;11.902;2023-04-25T08:13:02;5.70;;;2.73;;
8927;SDS011;4499;48.304;11.902;2023-04-25T08:15:30;4.37;;;2.80;;
8927;SDS011;4499;48.304;11.902;2023-04-25T08:18:00;4.77;;;2.40;;
8927;SDS011;4499;48.304;11.902;2023-04-25T08:20:28;4.60;;;2.50;;
8927;SDS011;4499;48.304;11.902;2023-04-25T08:22:56;3.27;;;2.20;;
8927;SDS011;4499;48.304;11.902;2023-04-25T08:25:24;3.40;;;2.33;;
8927;SDS011;4499;48.304;11.902;2023-04-25T08:27:52;3.17;;;2.10;;
8927;SDS011;4499;48.304;11.902;2023-04-25T08:30:21;3.67;;;1.90;;
8927;SDS011;4499;48.304;11.902;2023-04-25T08:32:49;2.80;;;1.70;;
8927;SDS011;4499;48.304;11.902;2023-04-25T08:35:19;4.70;;;2.00;;
8927;SDS011;4499;48.304;11.902;2023-04-25T08:37:47;3.07;;;2.00;;
8927;SDS011;4499;48.304;11.902;2023-04-25T08:40:16;4.60;;;1.60;;
8927;SDS011;4499;48.304;11.902;2023-04-25T08:42:44;3.07;;;1.70;;
8927;SDS011;4499;48.304;11.902;2023-04-25T08:45:14;2.55;;;1.65;;
8927;SDS011;4499;48.304;11.902;2023-04-25T08:47:42;4.25;;;2.20;;
8927;SDS011;4499;48.304;11.902;2023-04-25T08:50:15;3.72;;;2.03;;
8927;SDS011;4499;48.304;11.902;2023-04-25T08:52:47;3.60;;;1.90;;
8927;SDS011;4499;48.304;11.902;2023-04-25T08:55:18;2.70;;;1.83;;
8927;SDS011;4499;48.304;11.902;2023-04-25T08:57:48;3.42;;;1.83;;
8927;SDS011;4499;48.304;11.902;2023-04-25T09:00:17;2.85;;;1.70;;
8927;SDS011;4499;48.304;11.902;2023-04-25T09:02:46;2.53;;;1.90;;
8927;SDS011;4499;48.304;11.902;2023-04-25T09:05:15;2.83;;;2.00;;
8927;SDS011;4499;48.304;11.902;2023-04-25T09:07:48;2.40;;;1.73;;
8927;SDS011;4499;48.304;11.902;2023-04-25T09:10:16;7.37;;;1.80;;
8927;SDS011;4499;48.304;11.902;2023-04-25T09:12:44;2.57;;;2.10;;
8927;SDS011;4499;48.304;11.902;2023-04-25T09:15:20;5.03;;;2.10;;
8927;SDS011;4499;48.304;11.902;2023-04-25T09:17:52;5.97;;;4.67;;
8927;SDS011;4499;48.304;11.902;2023-04-25T09:20:23;6.60;;;4.23;;
8927;SDS011;4499;48.304;11.902;2023-04-25T09:23:02;6.83;;;3.10;;
8927;SDS011;4499;48.304;11.902;2023-04-25T09:25:33;3.83;;;2.40;;
8927;SDS011;4499;48.304;11.902;2023-04-25T09:28:05;3.80;;;2.50;;
8927;SDS011;4499;48.304;11.902;2023-04-25T09:30:34;5.00;;;2.30;;
8927;SDS011;4499;48.304;11.902;2023-04-25T09:33:04;2.60;;;2.20;;
8927;SDS011;4499;48.304;11.902;2023-04-25T09:35:37;4.27;;;2.60;;
8927;SDS011;4499;48.304;11.902;2023-04-25T09:38:11;3.33;;;2.50;;
8927;SDS011;4499;48.304;11.902;2023-04-25T09:40:40;3.43;;;2.50;;
8927;SDS011;4499;48.304;11.902;2023-04-25T09:43:18;3.97;;;2.20;;
8927;SDS011;4499;48.304;11.902;2023-04-25T09:45:47;4.83;;;2.97;;
8927;SDS011;4499;48.304;11.902;2023-04-25T09:48:18;2.53;;;2.13;;
8927;SDS011;4499;48.304;11.902;2023-04-25T09:50:51;5.67;;;3.20;;
8927;SDS011;4499;48.304;11.902;2023-04-25T09:53:33;5.07;;;2.50;;
8927;SDS011;4499;48.304;11.902;2023-04-25T09:56:03;3.37;;;2.33;;
8927;SDS011;4499;48.304;11.902;2023-04-25T09:58:33;3.20;;;2.00;;
8927;SDS011;4499;48.304;11.902;2023-04-25T10:01:03;1.90;;;1.70;;
8927;SDS011;4499;48.304;11.902;2023-04-25T10:03:32;2.43;;;1.80;;
8927;SDS011;4499;48.304;11.902;2023-04-25T10:06:03;1.93;;;1.63;;
8927;SDS011;4499;48.304;11.902;2023-04-25T10:08:37;3.50;;;1.60;;
8927;SDS011;4499;48.304;11.902;2023-04-25T10:11:07;6.03;;;2.00;;
8927;SDS011;4499;48.304;11.902;2023-04-25T10:13:35;2.57;;;1.70;;
8927;SDS011;4499;48.304;11.902;2023-04-25T10:16:04;2.37;;;1.83;;
8927;SDS011;4499;48.304;11.902;2023-04-25T10:18:33;2.47;;;1.60;;
8927;SDS011;4499;48.304;11.902;2023-04-25T10:21:01;3.83;;;1.93;;
8927;SDS011;4499;48.304;11.902;2023-04-25T10:23:32;2.43;;;1.90;;
8927;SDS011;4499;48.304;11.902;2023-04-25T10:26:02;2.93;;;2.10;;
8927;SDS011;4499;48.304;11.902;2023-04-25T10:28:33;2.40;;;2.20;;
8927;SDS011;4499;48.304;11.902;2023-04-25T10:31:24;3.03;;;1.90;;
8927;SDS011;4499;48.304;11.902;2023-04-25T10:33:53;3.37;;;2.10;;
8927;SDS011;4499;48.304;11.902;2023-04-25T10:36:22;3.37;;;2.03;;
8927;SDS011;4499;48.304;11.902;2023-04-25T10:38:51;2.87;;;1.83;;
8927;SDS011;4499;48.304;11.902;2023-04-25T10:41:22;2.90;;;1.80;;
8927;SDS011;4499;48.304;11.902;2023-04-25T10:43:50;2.30;;;1.80;;
8927;SDS011;4499;48.304;11.902;2023-04-25T10:46:28;2.63;;;1.87;;
8927;SDS011;4499;48.304;11.902;2023-04-25T10:48:57;1.87;;;1.77;;
8927;SDS011;4499;48.304;11.902;2023-04-25T10:51:27;4.13;;;1.97;;
8927;SDS011;4499;48.304;11.902;2023-04-25T10:54:16;2.57;;;1.90;;
8927;SDS011;4499;48.304;11.902;2023-04-25T10:56:48;2.97;;;1.90;;
8927;SDS011;4499;48.304;11.902;2023-04-25T10:59:17;2.60;;;1.70;;
8927;SDS011;4499;48.304;11.902;2023-04-25T11:01:48;3.30;;;1.80;;
8927;SDS011;4499;48.304;11.902;2023-04-25T11:04:19;2.60;;;1.80;;
8927;SDS011;4499;48.304;11.902;2023-04-25T11:06:55;2.00;;;1.80;;
8927;SDS011;4499;48.304;11.902;2023-04-25T11:09:49;2.30;;;1.57;;
8927;SDS011;4499;48.304;11.902;2023-04-25T11:12:19;4.33;;;2.00;;
8927;SDS011;4499;48.304;11.902;2023-04-25T11:14:47;3.33;;;1.97;;
8927;SDS011;4499;48.304;11.902;2023-04-25T11:17:15;2.77;;;1.90;;
8927;SDS011;4499;48.304;11.902;2023-04-25T11:19:43;3.17;;;2.10;;
8927;SDS011;4499;48.304;11.902;2023-04-25T11:22:15;6.93;;;3.17;;
8927;SDS011;4499;48.304;11.902;2023-04-25T11:24:43;14.90;;;9.40;;
8927;SDS011;4499;48.304;11.902;2023-04-25T11:27:13;10.63;;;6.80;;
8927;SDS011;4499;48.304;11.902;2023-04-25T11:29:42;5.03;;;3.37;;
8927;SDS011;4499;48.304;11.902;2023-04-25T11:32:10;5.00;;;2.10;;
8927;SDS011;4499;48.304;11.902;2023-04-25T11:34:39;4.43;;;1.80;;
8927;SDS011;4499;48.304;11.902;2023-04-25T11:37:11;3.03;;;1.70;;
8927;SDS011;4499;48.304;11.902;2023-04-25T11:39:42;2.47;;;1.90;;
8927;SDS011;4499;48.304;11.902;2023-04-25T11:42:12;3.87;;;2.53;;
8927;SDS011;4499;48.304;11.902;2023-04-25T11:44:40;3.17;;;2.60;;
8927;SDS011;4499;48.304;11.902;2023-04-25T11:47:10;3.37;;;2.50;;
8927;SDS011;4499;48.304;11.902;2023-04-25T11:49:38;2.97;;;2.50;;
8927;SDS011;4499;48.304;11.902;2023-04-25T11:52:06;5.00;;;2.90;;
8927;SDS011;4499;48.304;11.902;2023-04-25T11:54:35;3.73;;;3.20;;
8927;SDS011;4499;48.304;11.902;2023-04-25T11:57:04;2.77;;;2.50;;
8927;SDS011;4499;48.304;11.902;2023-04-25T11:59:32;2.70;;;2.17;;
8927;SDS011;4499;48.304;11.902;2023-04-25T12:02:01;3.30;;;2.30;;
8927;SDS011;4499;48.304;11.902;2023-04-25T12:04:30;3.80;;;2.00;;
8927;SDS011;4499;48.304;11.902;2023-04-25T12:07:00;3.13;;;2.33;;
8927;SDS011;4499;48.304;11.902;2023-04-25T12:09:29;3.53;;;2.30;;
8927;SDS011;4499;48.304;11.902;2023-04-25T12:11:58;2.47;;;2.20;;
8927;SDS011;4499;48.304;11.902;2023-04-25T12:14:30;2.10;;;1.90;;
8927;SDS011;4499;48.304;11.902;2023-04-25T12:16:59;2.33;;;2.13;;
8927;SDS011;4499;48.304;11.902;2023-04-25T12:19:33;2.37;;;2.13;;
8927;SDS011;4499;48.304;11.902;2023-04-25T12:22:02;2.50;;;2.30;;
8927;SDS011;4499;48.304;11.902;2023-04-25T12:24:33;4.63;;;2.20;;
8927;SDS011;4499;48.304;11.902;2023-04-25T12:27:04;3.23;;;2.23;;
8927;SDS011;4499;48.304;11.902;2023-04-25T12:29:34;2.27;;;2.00;;
8927;SDS011;4499;48.304;11.902;2023-04-25T12:32:15;2.47;;;1.80;;
8927;SDS011;4499;48.304;11.902;2023-04-25T12:34:45;1.77;;;1.43;;
8927;SDS011;4499;48.304;11.902;2023-04-25T12:37:13;5.00;;;2.10;;
8927;SDS011;4499;48.304;11.902;2023-04-25T12:39:42;3.00;;;2.13;;
8927;SDS011;4499;48.304;11.902;2023-04-25T12:42:10;2.93;;;1.70;;
8927;SDS011;4499;48.304;11.902;2023-04-25T12:44:39;1.70;;;1.60;;
8927;SDS011;4499;48.304;11.902;2023-04-25T12:47:08;3.20;;;1.97;;
8927;SDS011;4499;48.304;11.902;2023-04-25T12:49:36;3.47;;;2.30;;
8927;SDS011;4499;48.304;11.902;2023-04-25T12:52:05;2.10;;;1.90;;
8927;SDS011;4499;48.304;11.902;2023-04-25T12:54:33;2.47;;;1.83;;
8927;SDS011;4499;48.304;11.902;2023-04-25T12:57:02;1.80;;;1.70;;
8927;SDS011;4499;48.304;11.902;2023-04-25T12:59:31;2.50;;;1.83;;
8927;SDS011;4499;48.304;11.902;2023-04-25T13:01:59;2.30;;;1.80;;
8927;SDS011;4499;48.304;11.902;2023-04-25T13:04:28;2.60;;;2.13;;
8927;SDS011;4499;48.304;11.902;2023-04-25T13:06:56;2.07;;;1.87;;
8927;SDS011;4499;48.304;11.902;2023-04-25T13:09:25;2.07;;;1.80;;
8927;SDS011;4499;48.304;11.902;2023-04-25T13:11:53;2.00;;;1.90;;
8927;SDS011;4499;48.304;11.902;2023-04-25T13:14:24;2.10;;;1.90;;
8927;SDS011;4499;48.304;11.902;2023-04-25T13:16:52;2.37;;;1.70;;
8927;SDS011;4499;48.304;11.902;2023-04-25T13:19:21;3.40;;;1.80;;
8927;SDS011;4499;48.304;11.902;2023-04-25T13:21:49;3.03;;;1.60;;
8927;SDS011;4499;48.304;11.902;2023-04-25T13:24:17;2.17;;;1.60;;
8927;SDS011;4499;48.304;11.902;2023-04-25T13:26:47;2.63;;;1.57;;
8927;SDS011;4499;48.304;11.902;2023-04-25T13:29:15;2.33;;;1.63;;
8927;SDS011;4499;48.304;11.902;2023-04-25T13:31:43;2.13;;;1.80;;
8927;SDS011;4499;48.304;11.902;2023-04-25T13:34:11;2.40;;;1.97;;
8927;SDS011;4499;48.304;11.902;2023-04-25T13:36:40;2.43;;;2.07;;
8927;SDS011;4499;48.304;11.902;2023-04-25T13:39:09;2.30;;;1.80;;
8927;SDS011;4499;48.304;11.902;2023-04-25T13:41:38;6.00;;;2.50;;
8927;SDS011;4499;48.304;11.902;2023-04-25T13:44:08;3.17;;;2.30;;
8927;SDS011;4499;48.304;11.902;2023-04-25T13:46:36;1.80;;;1.70;;
8927;SDS011;4499;48.304;11.902;2023-04-25T13:49:07;1.80;;;1.50;;
8927;SDS011;4499;48.304;11.902;2023-04-25T13:51:38;1.30;;;1.20;;
8927;SDS011;4499;48.304;11.902;2023-04-25T13:54:08;1.40;;;1.30;;
8927;SDS011;4499;48.304;11.902;2023-04-25T13:56:36;1.70;;;1.60;;
8927;SDS011;4499;48.304;11.902;2023-04-25T13:59:04;1.73;;;1.30;;
8927;SDS011;4499;48.304;11.902;2023-04-25T14:01:34;1.03;;;0.93;;
8927;SDS011;4499;48.304;11.902;2023-04-25T14:04:03;0.93;;;0.93;;
8927;SDS011;4499;48.304;11.902;2023-04-25T14:06:31;1.47;;;1.30;;
8927;SDS011;4499;48.304;11.902;2023-04-25T14:08:59;1.00;;;1.00;;
8927;SDS011;4499;48.304;11.902;2023-04-25T14:11:28;1.23;;;1.13;;
8927;SDS011;4499;48.304;11.902;2023-04-25T14:13:56;0.93;;;0.90;;
8927;SDS011;4499;48.304;11.902;2023-04-25T14:16:24;1.37;;;1.00;;
8927;SDS011;4499;48.304;11.902;2023-04-25T14:18:54;1.00;;;1.00;;
8927;SDS011;4499;48.304;11.902;2023-04-25T14:21:22;1.10;;;1.00;;
8927;SDS011;4499;48.304;11.902;2023-04-25T14:23:50;1.40;;;1.00;;
8927;SDS011;4499;48.304;11.902;2023-04-25T14:26:19;1.40;;;1.20;;
8927;SDS011;4499;48.304;11.902;2023-04-25T14:28:47;1.80;;;1.33;;
8927;SDS011;4499;48.304;11.902;2023-04-25T14:31:15;1.87;;;1.30;;
8927;SDS011;4499;48.304;11.902;2023-04-25T14:33:43;2.47;;;2.17;;
8927;SDS011;4499;48.304;11.902;2023-04-25T14:36:14;16.47;;;14.80;;
8927;SDS011;4499;48.304;11.902;2023-04-25T14:38:42;12.63;;;11.33;;
8927;SDS011;4499;48.304;11.902;2023-04-25T14:41:10;4.83;;;3.90;;
8927;SDS011;4499;48.304;11.902;2023-04-25T14:43:38;2.80;;;2.10;;
8927;SDS011;4499;48.304;11.902;2023-04-25T14:46:08;2.57;;;2.00;;
8927;SDS011;4499;48.304;11.902;2023-04-25T14:48:37;1.97;;;1.77;;
8927;SDS011;4499;48.304;11.902;2023-04-25T14:51:06;2.30;;;1.80;;
8927;SDS011;4499;48.304;11.902;2023-04-25T14:53:35;1.77;;;1.20;;
8927;SDS011;4499;48.304;11.902;2023-04-25T14:56:03;2.00;;;1.80;;
8927;SDS011;4499;48.304;11.902;2023-04-25T14:58:33;2.10;;;1.90;;
8927;SDS011;4499;48.304;11.902;2023-04-25T15:01:01;1.60;;;1.50;;
8927;SDS011;4499;48.304;11.902;2023-04-25T15:03:29;2.13;;;1.73;;
8927;SDS011;4499;48.304;11.902;2023-04-25T15:05:58;2.27;;;1.63;;
8927;SDS011;4499;48.304;11.902;2023-04-25T15:08:26;1.67;;;1.57;;
8927;SDS011;4499;48.304;11.902;2023-04-25T15:10:56;1.90;;;1.80;;
8927;SDS011;4499;48.304;11.902;2023-04-25T15:13:24;2.33;;;1.70;;